Time;durP1;ratioP1;P1;durP2;ratioP2;P2;SDS_P1;SDS_P2;PMS_P1;PMS_P2;Temp;Humidity;BMP_temperature;BMP_pressure;BME280_temperature;BME280_humidity;BME280_pressure;Samples;Min_cycle;Max_cycle;Signal;HPM_P1;HPM_P2
2023/08/20 00:01:30;;;;;;;12.38;7.70;;;20.80;99.90;;;20.17;100.00;98234.81;4999259;28;20046;-74
2023/08/20 00:03:58;;;;;;;8.93;6.72;;;20.80;99.90;;;20.23;100.00;98220.34;5002276;28;20056;-74
2023/08/20 00:06:27;;;;;;;10.52;7.75;;;20.80;99.90;;;20.18;100.00;98219.84;5001408;28;20061;-74
2023/08/20 00:08:54;;;;;;;9.98;6.28;;;20.80;99.90;;;20.21;100.00;98224.91;5000785;28;20188;-74
2023/08/20 00:11:21;;;;;;;10.27;7.03;;;20.80;99.90;;;20.07;100.00;98218.00;5001369;28;20820;-72
2023/08/20 00:13:48;;;;;;;14.02;8.90;;;20.80;99.90;;;20.01;100.00;98226.31;5004190;28;20086;-72
2023/08/20 00:16:15;;;;;;;9.15;7.50;;;20.70;99.90;;;20.03;100.00;98224.41;5001703;28;20046;-74
2023/08/20 00:18:43;;;;;;;13.75;7.80;;;20.70;99.90;;;19.93;100.00;98218.94;5003357;28;20054;-74
2023/08/20 00:21:10;;;;;;;17.83;8.65;;;20.60;99.90;;;19.89;100.00;98216.63;5017837;28;20422;-73
2023/08/20 00:23:41;;;;;;;12.52;9.00;;;20.60;99.90;;;19.88;100.00;98223.69;5002595;28;20418;-72
2023/08/20 00:26:12;;;;;;;11.45;7.75;;;20.60;99.90;;;19.90;100.00;98221.78;4982417;28;20108;-73
2023/08/20 00:28:41;;;;;;;15.63;9.15;;;20.50;99.90;;;19.85;100.00;98237.94;4997682;28;20054;-72
2023/08/20 00:31:12;;;;;;;8.88;7.20;;;20.50;99.90;;;19.86;100.00;98230.84;5000656;28;20053;-71
2023/08/20 00:33:40;;;;;;;11.02;7.93;;;20.40;99.90;;;19.75;100.00;98229.00;5003201;28;20182;-72
2023/08/20 00:36:17;;;;;;;14.15;7.82;;;20.40;99.90;;;19.68;100.00;98227.69;5002616;28;20053;-72
2023/08/20 00:38:45;;;;;;;6.68;6.07;;;20.40;99.90;;;19.72;100.00;98228.34;5002418;28;20060;-72
2023/08/20 00:41:13;;;;;;;10.15;7.05;;;20.30;99.90;;;19.70;100.00;98230.25;4996505;28;20140;-72
2023/08/20 00:43:42;;;;;;;7.97;6.82;;;20.30;99.90;;;19.73;100.00;98237.94;5000116;28;20573;-73
2023/08/20 00:46:09;;;;;;;9.43;6.90;;;20.30;99.90;;;19.71;100.00;98242.50;5002009;28;20128;-73
2023/08/20 00:48:37;;;;;;;9.15;7.20;;;20.30;99.90;;;19.64;100.00;98236.78;5005048;28;20046;-73
2023/08/20 00:51:05;;;;;;;15.85;7.38;;;20.30;99.90;;;19.74;100.00;98231.72;4989856;28;20088;-73
2023/08/20 00:53:32;;;;;;;10.68;8.05;;;20.30;99.90;;;19.76;100.00;98237.75;5002277;28;20546;-73
2023/08/20 00:55:59;;;;;;;12.13;8.60;;;20.30;99.90;;;19.65;100.00;98227.91;5005436;28;20120;-73
2023/08/20 00:58:26;;;;;;;8.02;7.22;;;20.30;99.90;;;19.53;100.00;98231.41;5021443;28;20046;-73
2023/08/20 01:00:54;;;;;;;14.00;8.18;;;20.20;99.90;;;19.52;100.00;98221.78;4989453;28;20049;-73
2023/08/20 01:03:21;;;;;;;11.75;6.88;;;20.20;99.90;;;19.49;100.00;98217.59;5019690;28;20507;-72
2023/08/20 01:06:03;;;;;;;12.10;7.60;;;20.20;99.90;;;19.50;100.00;98216.66;5007065;28;20607;-74
2023/08/20 01:08:39;;;;;;;6.20;4.60;;;20.10;99.90;;;19.54;100.00;98209.38;5006393;28;20073;-73
2023/08/20 01:11:18;;;;;;;8.82;5.82;;;20.10;99.90;;;19.63;100.00;98201.66;4991067;28;20164;-73
2023/08/20 01:13:45;;;;;;;8.88;6.20;;;20.10;99.90;;;19.57;100.00;98198.66;5008385;28;20054;-73
2023/08/20 01:16:13;;;;;;;7.72;6.40;;;20.20;99.90;;;19.40;100.00;98191.91;5006059;28;20084;-73
2023/08/20 01:18:40;;;;;;;6.80;5.53;;;20.10;99.90;;;19.48;100.00;98186.09;5003800;28;20073;-73
2023/08/20 01:21:26;;;;;;;8.65;7.25;;;20.10;99.90;;;19.35;100.00;98186.09;5004417;28;20796;-73
2023/08/20 01:24:34;;;;;;;12.77;7.10;;;20.00;99.90;;;19.29;100.00;98183.88;5004603;28;20057;-75
2023/08/20 01:27:52;;;;;;;8.52;7.55;;;20.00;99.90;;;19.31;100.00;98188.09;5006782;28;20128;-72
2023/08/20 01:30:21;;;;;;;8.68;6.53;;;19.90;99.90;;;19.32;100.00;98194.22;4984253;28;20108;-74
2023/08/20 01:32:50;;;;;;;10.05;6.75;;;19.90;99.90;;;19.32;100.00;98196.88;4989845;28;20427;-71
2023/08/20 01:35:18;;;;;;;12.80;8.68;;;19.90;99.90;;;19.26;100.00;98198.09;5019148;28;20092;-74
2023/08/20 01:37:45;;;;;;;7.15;5.78;;;19.90;99.90;;;19.21;100.00;98202.84;5004392;28;20116;-74
2023/08/20 01:40:12;;;;;;;13.10;7.32;;;19.90;99.90;;;19.18;100.00;98203.03;5004279;28;20054;-74
2023/08/20 01:42:40;;;;;;;7.88;5.10;;;19.90;99.90;;;19.17;100.00;98196.94;5006083;28;20462;-74
2023/08/20 01:45:11;;;;;;;15.65;6.15;;;19.80;99.90;;;19.03;100.00;98202.28;5003262;28;20140;-73
2023/08/20 01:47:38;;;;;;;12.13;7.70;;;19.80;99.90;;;18.89;100.00;98202.38;5003117;28;20046;-74
2023/08/20 01:50:05;;;;;;;9.27;5.30;;;19.70;99.90;;;18.88;100.00;98201.50;5006642;28;20054;-74
2023/08/20 01:52:33;;;;;;;8.75;4.57;;;19.70;99.90;;;18.76;100.00;98203.16;5002824;28;20123;-74
2023/08/20 01:55:02;;;;;;;9.68;5.50;;;19.60;99.90;;;18.67;100.00;98198.50;5003957;28;20081;-74
2023/08/20 01:57:29;;;;;;;9.80;6.63;;;19.50;99.90;;;18.71;100.00;98207.88;5005312;28;20077;-73
2023/08/20 01:59:57;;;;;;;11.32;6.45;;;19.40;99.90;;;18.73;100.00;98215.66;5005239;28;20042;-74
2023/08/20 02:02:25;;;;;;;13.10;7.22;;;19.40;99.90;;;18.79;100.00;98212.66;5001692;28;20438;-74
2023/08/20 02:04:52;;;;;;;12.63;5.88;;;19.40;99.90;;;18.75;100.00;98211.16;4987396;28;20611;-74
2023/08/20 02:07:19;;;;;;;10.88;6.50;;;19.40;99.90;;;18.79;100.00;98221.41;5002599;28;20148;-75
2023/08/20 02:09:47;;;;;;;9.98;6.72;;;19.40;99.90;;;18.76;100.00;98220.72;5003384;28;20109;-74
2023/08/20 02:12:14;;;;;;;9.48;6.32;;;19.50;99.90;;;18.88;100.00;98217.28;5005013;28;20076;-74
2023/08/20 02:14:41;;;;;;;9.82;6.32;;;19.50;99.90;;;18.81;100.00;98216.03;5004768;28;20423;-74
2023/08/20 02:17:09;;;;;;;10.45;6.85;;;19.50;99.90;;;18.71;100.00;98215.75;5005097;28;20137;-73
2023/08/20 02:19:36;;;;;;;9.07;7.70;;;19.40;99.90;;;18.64;100.00;98208.38;5005190;28;20117;-74
2023/08/20 02:22:03;;;;;;;8.48;6.15;;;19.40;99.90;;;18.68;100.00;98209.84;5007084;28;20058;-74
2023/08/20 02:24:31;;;;;;;10.25;6.25;;;19.40;99.90;;;18.79;100.00;98212.66;5006314;28;20140;-74
2023/08/20 02:27:01;;;;;;;10.68;7.55;;;19.40;99.90;;;18.79;100.00;98216.16;5001903;28;20053;-73
2023/08/20 02:29:30;;;;;;;11.48;7.20;;;19.40;99.90;;;18.71;100.00;98220.19;5017999;28;20053;-73
2023/08/20 02:31:57;;;;;;;7.38;5.07;;;19.40;99.90;;;18.69;100.00;98217.66;5000857;28;20144;-74
2023/08/20 02:34:38;;;;;;;7.63;5.68;;;19.40;99.90;;;18.67;100.00;98219.53;5003615;28;20054;-74
2023/08/20 02:37:04;;;;;;;9.77;6.70;;;19.40;99.90;;;18.65;100.00;98207.44;5005734;28;20100;-72
2023/08/20 02:39:32;;;;;;;10.73;6.07;;;19.40;99.90;;;18.59;100.00;98201.63;5003030;28;20133;-74
2023/08/20 02:41:59;;;;;;;12.55;7.18;;;19.30;99.90;;;18.54;100.00;98202.88;5000211;28;20046;-74
2023/08/20 02:44:27;;;;;;;15.95;5.70;;;19.30;99.90;;;18.60;100.00;98211.19;5004541;28;20199;-74
2023/08/20 02:46:54;;;;;;;9.40;6.47;;;19.30;99.90;;;18.64;100.00;98214.47;5004724;28;20086;-75
2023/08/20 02:49:22;;;;;;;14.43;5.38;;;19.30;99.90;;;18.84;100.00;98220.22;5003682;28;20042;-75
2023/08/20 02:51:49;;;;;;;13.48;6.28;;;19.30;99.90;;;18.61;100.00;98209.44;5003155;28;20042;-73
2023/08/20 02:54:16;;;;;;;13.05;4.93;;;19.30;99.90;;;18.67;100.00;98205.53;5003066;28;20074;-74
2023/08/20 02:56:43;;;;;;;7.15;4.28;;;19.30;99.90;;;18.72;100.00;98208.72;5003795;28;20050;-75
2023/08/20 02:59:10;;;;;;;7.50;4.70;;;19.30;99.90;;;18.73;100.00;98200.72;5002134;28;20073;-72
2023/08/20 03:01:40;;;;;;;9.10;5.25;;;19.30;99.90;;;18.81;100.00;98208.97;5002447;28;20077;-74
2023/08/20 03:04:07;;;;;;;9.07;4.55;;;19.40;99.90;;;18.84;100.00;98199.19;5005273;28;20054;-74
2023/08/20 03:06:34;;;;;;;8.80;5.28;;;19.40;99.90;;;18.77;100.00;98194.38;5004872;28;20053;-73
2023/08/20 03:09:05;;;;;;;7.65;5.35;;;19.40;99.90;;;18.71;100.00;98188.63;5002780;28;20096;-75
2023/08/20 03:11:32;;;;;;;8.60;5.80;;;19.40;99.90;;;18.85;100.00;98193.84;4998236;28;20046;-74
2023/08/20 03:14:00;;;;;;;7.15;4.90;;;19.40;99.90;;;18.91;100.00;98187.34;5004165;28;20046;-75
2023/08/20 03:16:27;;;;;;;8.32;4.68;;;19.40;99.90;;;18.97;100.00;98189.53;5002006;28;20046;-74
2023/08/20 03:18:54;;;;;;;12.57;5.90;;;19.50;99.90;;;18.84;100.00;98184.28;5001627;28;20093;-74
2023/08/20 03:21:21;;;;;;;8.77;5.65;;;19.50;99.90;;;18.90;100.00;98185.63;4987887;28;20053;-74
2023/08/20 03:23:49;;;;;;;10.35;5.82;;;19.50;99.90;;;18.87;100.00;98175.34;5000989;28;20073;-74
2023/08/20 03:26:19;;;;;;;10.73;6.78;;;19.40;99.90;;;18.92;100.00;98173.22;5003236;28;20104;-74
2023/08/20 03:28:46;;;;;;;6.65;5.35;;;19.40;99.90;;;18.96;100.00;98174.72;5014722;28;20061;-74
2023/08/20 03:31:14;;;;;;;10.43;6.50;;;19.50;99.90;;;18.86;100.00;98176.25;5002453;28;20515;-74
2023/08/20 03:33:41;;;;;;;9.27;6.32;;;19.50;99.90;;;18.74;100.00;98172.63;5011877;28;20543;-74
2023/08/20 03:36:08;;;;;;;11.68;5.60;;;19.40;99.90;;;18.81;100.00;98181.84;4988928;28;20057;-72
2023/08/20 03:38:35;;;;;;;7.05;5.28;;;19.40;99.90;;;18.84;100.00;98179.03;5003404;28;20133;-73
2023/08/20 03:41:03;;;;;;;12.00;5.10;;;19.40;99.90;;;18.73;100.00;98174.44;4997166;28;20108;-74
2023/08/20 03:43:30;;;;;;;8.05;4.43;;;19.40;99.90;;;18.67;100.00;98171.38;5004789;28;20120;-73
2023/08/20 03:45:57;;;;;;;11.05;5.63;;;19.40;99.90;;;18.77;100.00;98189.09;5001994;28;20085;-74
2023/08/20 03:48:27;;;;;;;9.23;5.30;;;19.30;99.90;;;18.89;100.00;98189.22;5003316;28;20561;-74
2023/08/20 03:50:56;;;;;;;8.85;6.72;;;19.40;99.90;;;18.79;100.00;98188.97;4988089;28;20132;-74
2023/08/20 03:53:23;;;;;;;11.18;6.95;;;19.40;99.90;;;18.84;100.00;98193.94;5001466;28;20177;-74
2023/08/20 03:55:50;;;;;;;11.13;6.90;;;19.40;99.90;;;18.84;100.00;98199.19;5000762;28;20120;-74
2023/08/20 03:58:17;;;;;;;14.02;6.22;;;19.40;99.90;;;18.88;100.00;98198.88;5003428;28;20042;-74
2023/08/20 04:00:45;;;;;;;11.32;6.70;;;19.40;99.90;;;18.90;100.00;98198.78;5002434;28;20139;-73
2023/08/20 04:03:13;;;;;;;12.10;5.75;;;19.40;99.90;;;18.94;100.00;98189.75;5000494;28;20427;-74
2023/08/20 04:05:40;;;;;;;10.50;6.25;;;19.50;99.90;;;18.92;100.00;98194.28;5001442;28;20108;-74
2023/08/20 04:08:07;;;;;;;9.68;5.03;;;19.50;99.90;;;19.04;100.00;98193.44;4998655;28;20104;-72
2023/08/20 04:10:35;;;;;;;8.98;4.82;;;19.50;99.90;;;19.14;100.00;98193.69;5001184;28;20219;-74
2023/08/20 04:13:03;;;;;;;7.45;5.18;;;19.50;99.90;;;19.18;100.00;98196.00;5003738;28;20247;-74
2023/08/20 04:15:30;;;;;;;10.45;5.78;;;19.60;99.90;;;19.12;100.00;98191.16;5003444;28;20046;-74
2023/08/20 04:17:57;;;;;;;6.78;5.55;;;19.60;99.90;;;19.16;100.00;98199.69;5005483;28;20537;-74
2023/08/20 04:20:24;;;;;;;8.20;6.57;;;19.70;99.90;;;19.11;100.00;98199.13;4997133;28;20060;-74
2023/08/20 04:22:51;;;;;;;11.68;7.22;;;19.70;99.90;;;19.05;100.00;98202.19;5004471;28;20053;-74
2023/08/20 04:25:18;;;;;;;9.23;6.60;;;19.70;99.90;;;19.02;100.00;98205.84;5002084;28;20072;-74
2023/08/20 04:27:45;;;;;;;10.90;8.05;;;19.70;99.90;;;18.99;100.00;98200.81;4998218;28;20066;-74
2023/08/20 04:30:12;;;;;;;14.05;7.18;;;19.60;99.90;;;18.88;100.00;98200.69;5009168;28;20050;-73
2023/08/20 04:32:40;;;;;;;10.63;6.40;;;19.60;99.90;;;18.92;100.00;98210.91;5002254;28;20136;-73
2023/08/20 04:35:07;;;;;;;10.88;6.88;;;19.60;99.90;;;18.95;100.00;98217.75;5000824;28;20065;-74
2023/08/20 04:37:34;;;;;;;11.30;7.30;;;19.60;99.90;;;19.01;100.00;98215.53;5000283;28;20101;-74
2023/08/20 04:40:06;;;;;;;11.50;7.28;;;19.60;99.90;;;19.07;100.00;98224.81;4999893;28;20112;-72
2023/08/20 04:42:33;;;;;;;8.95;6.15;;;19.60;99.90;;;19.18;100.00;98224.09;5000782;28;20049;-74
2023/08/20 04:45:00;;;;;;;9.15;6.38;;;19.70;99.90;;;19.07;100.00;98223.97;5003744;28;20049;-74
2023/08/20 04:47:27;;;;;;;8.60;5.10;;;19.70;99.90;;;19.12;100.00;98227.16;5001490;28;20435;-74
2023/08/20 04:49:54;;;;;;;8.30;6.13;;;19.60;99.90;;;19.15;100.00;98233.03;5000926;28;20129;-74
2023/08/20 04:52:21;;;;;;;7.32;4.88;;;19.70;99.90;;;19.12;100.00;98235.88;5018963;28;20124;-73
2023/08/20 04:54:49;;;;;;;8.27;5.30;;;19.60;99.90;;;19.21;100.00;98237.91;5001928;28;20484;-74
2023/08/20 04:57:16;;;;;;;9.13;6.95;;;19.60;99.90;;;19.22;100.00;98239.56;5001618;28;20056;-74
2023/08/20 04:59:45;;;;;;;12.70;4.85;;;19.70;99.90;;;19.37;100.00;98242.97;5016440;28;20660;-74
2023/08/20 05:02:12;;;;;;;8.25;5.18;;;19.70;99.90;;;19.31;100.00;98245.16;5001465;28;20046;-73
2023/08/20 05:04:40;;;;;;;12.90;6.35;;;19.80;99.90;;;19.38;100.00;98242.00;4998856;28;20210;-74
2023/08/20 05:07:08;;;;;;;6.53;4.82;;;19.80;99.90;;;19.42;100.00;98240.84;4999386;28;20914;-78
2023/08/20 05:09:35;;;;;;;9.40;4.88;;;19.90;99.90;;;19.37;100.00;98250.03;4986867;28;20132;-74
2023/08/20 05:12:02;;;;;;;8.98;5.20;;;19.80;99.90;;;19.37;100.00;98250.03;5000988;28;20046;-73
2023/08/20 05:14:31;;;;;;;8.05;4.07;;;19.80;99.90;;;19.30;100.00;98252.22;5002870;28;20507;-74
2023/08/20 05:16:58;;;;;;;5.80;4.03;;;19.90;99.90;;;19.28;100.00;98251.50;5000247;28;20141;-73
2023/08/20 05:19:25;;;;;;;8.55;4.60;;;19.90;99.90;;;19.37;100.00;98257.94;4999632;28;20057;-74
2023/08/20 05:21:55;;;;;;;9.15;5.32;;;19.90;99.90;;;19.52;100.00;98261.28;5002325;28;20073;-74
2023/08/20 05:24:23;;;;;;;9.88;6.57;;;19.90;99.90;;;19.63;100.00;98266.66;4999605;28;20499;-74
2023/08/20 05:27:04;;;;;;;13.20;8.52;;;20.00;99.90;;;19.67;100.00;98272.59;4997903;28;20077;-74
2023/08/20 05:29:32;;;;;;;10.70;8.52;;;20.00;99.90;;;19.73;100.00;98267.78;5003167;28;20133;-74
2023/08/20 05:31:59;;;;;;;10.45;9.40;;;20.10;99.90;;;19.82;100.00;98272.41;5000838;28;20046;-75
2023/08/20 05:34:26;;;;;;;12.85;10.73;;;20.20;99.90;;;19.95;100.00;98276.81;5003110;28;20046;-74
2023/08/20 05:36:53;;;;;;;15.52;12.43;;;20.20;99.90;;;20.01;100.00;98282.50;5003082;28;20072;-74
2023/08/20 05:39:20;;;;;;;11.15;9.95;;;20.30;99.90;;;20.09;100.00;98283.75;5017165;28;20615;-74
2023/08/20 05:41:50;;;;;;;10.10;8.95;;;20.40;99.90;;;20.04;100.00;98284.06;5021561;28;20049;-74
2023/08/20 05:44:20;;;;;;;;;;;20.50;99.90;;;20.14;100.00;98286.88;5007380;28;20041;-74
2023/08/20 05:46:47;;;;;;;10.20;8.50;;;20.50;99.90;;;20.12;100.00;98292.28;5005119;28;20575;-73
2023/08/20 05:49:18;;;;;;;9.60;8.05;;;20.50;99.90;;;20.09;100.00;98289.00;5002455;28;20057;-73
2023/08/20 05:51:45;;;;;;;11.00;8.77;;;20.50;99.90;;;20.18;100.00;98285.72;5004429;28;20458;-74
2023/08/20 05:54:12;;;;;;;10.70;9.60;;;20.50;99.90;;;20.16;100.00;98288.50;5004190;28;20100;-73
2023/08/20 05:56:39;;;;;;;9.82;8.07;;;20.50;99.90;;;20.13;100.00;98299.22;5005986;28;20073;-74
2023/08/20 05:59:06;;;;;;;12.35;7.93;;;20.60;99.90;;;20.18;100.00;98283.94;5003931;28;20137;-74
2023/08/20 06:01:32;;;;;;;10.10;9.07;;;20.60;99.90;;;20.40;100.00;98291.16;5004503;28;20134;-73
2023/08/20 06:04:01;;;;;;;10.43;9.32;;;20.70;99.90;;;20.61;100.00;98288.81;5019393;28;20128;-74
2023/08/20 06:06:28;;;;;;;10.35;8.35;;;20.80;99.90;;;20.81;100.00;98289.16;5005168;28;20057;-74
2023/08/20 06:08:55;;;;;;;9.48;8.50;;;20.90;99.90;;;20.80;100.00;98288.34;5016098;28;20422;-73
2023/08/20 06:11:35;;;;;;;11.57;8.80;;;21.00;99.90;;;20.88;100.00;98291.22;5001495;28;20047;-73
2023/08/20 06:14:03;;;;;;;9.35;8.30;;;21.10;99.90;;;21.05;100.00;98292.66;4999025;28;20427;-73
2023/08/20 06:16:30;;;;;;;9.88;7.97;;;21.10;99.90;;;21.08;100.00;98294.22;5002339;28;20100;-74
2023/08/20 06:18:58;;;;;;;11.38;6.53;;;21.20;99.90;;;21.18;100.00;98284.63;5002481;28;20056;-74
2023/08/20 06:21:29;;;;;;;10.45;6.65;;;21.30;99.90;;;21.40;100.00;98283.91;5015142;28;20054;-74
2023/08/20 06:23:56;;;;;;;10.63;6.97;;;21.40;99.90;;;21.50;100.00;98276.97;5001777;28;20565;-74
2023/08/20 06:26:23;;;;;;;7.50;5.72;;;21.50;99.90;;;21.45;100.00;98271.19;5003633;28;20081;-72
2023/08/20 06:28:50;;;;;;;6.57;5.15;;;21.60;99.90;;;21.76;100.00;98262.69;4990948;28;20081;-72
2023/08/20 06:31:17;;;;;;;6.47;4.82;;;21.80;99.90;;;22.09;100.00;98246.84;5022807;28;20467;-72
2023/08/20 06:33:45;;;;;;;8.95;4.85;;;22.00;99.90;;;22.15;100.00;98245.53;5003455;28;20101;-72
2023/08/20 06:36:12;;;;;;;7.40;4.47;;;22.20;99.90;;;22.33;100.00;98230.88;5008646;28;20050;-72
2023/08/20 06:38:39;;;;;;;9.07;4.57;;;22.40;99.90;;;22.30;100.00;98209.13;4996148;28;20062;-72
2023/08/20 06:41:06;;;;;;;5.55;4.70;;;22.50;99.90;;;22.51;100.00;98191.53;4986149;28;20112;-72
2023/08/20 06:43:33;;;;;;;4.93;4.25;;;22.50;99.90;;;22.73;100.00;98190.56;5003594;28;21503;-72
2023/08/20 06:46:00;;;;;;;7.20;4.50;;;22.70;99.90;;;22.73;100.00;98187.09;5006612;28;20054;-73
2023/08/20 06:48:28;;;;;;;7.22;3.92;;;22.80;99.90;;;22.72;100.00;98177.50;5018654;28;20081;-73
2023/08/20 06:50:55;;;;;;;6.03;4.07;;;22.90;99.90;;;22.90;100.00;98167.19;5004714;28;20054;-73
2023/08/20 06:53:22;;;;;;;7.90;4.13;;;23.00;99.90;;;22.93;100.00;98158.97;5004684;28;20050;-71
2023/08/20 06:55:50;;;;;;;5.78;4.10;;;23.00;99.90;;;23.04;100.00;98160.75;5001645;28;20049;-73
2023/08/20 06:58:17;;;;;;;6.57;3.80;;;23.20;99.90;;;22.91;100.00;98158.25;5002675;28;20042;-71
2023/08/20 07:00:45;;;;;;;5.45;3.67;;;23.20;99.90;;;23.13;100.00;98157.31;5000013;28;20073;-73
2023/08/20 07:03:12;;;;;;;7.20;4.15;;;23.30;99.90;;;23.33;100.00;98158.25;4998988;28;20054;-73
2023/08/20 07:05:40;;;;;;;4.80;3.38;;;23.50;99.90;;;23.20;100.00;98157.66;5002603;28;20064;-72
2023/08/20 07:08:07;;;;;;;5.15;3.22;;;23.50;99.90;;;23.12;100.00;98158.28;4989594;28;20061;-73
2023/08/20 07:10:34;;;;;;;6.65;3.08;;;23.60;99.90;;;23.14;100.00;98157.19;5001126;28;20057;-73
2023/08/20 07:13:01;;;;;;;4.38;2.90;;;23.60;99.90;;;23.23;100.00;98160.03;5001791;28;20119;-71
2023/08/20 07:15:29;;;;;;;7.85;3.88;;;23.60;99.90;;;23.21;100.00;98161.97;5000708;28;20060;-73
2023/08/20 07:17:56;;;;;;;7.28;3.47;;;23.70;99.90;;;23.22;100.00;98159.19;5003772;28;20514;-73
2023/08/20 07:20:23;;;;;;;7.15;3.53;;;23.70;99.90;;;23.39;100.00;98170.97;5020576;28;20046;-73
2023/08/20 07:22:50;;;;;;;5.95;3.70;;;23.80;99.90;;;23.47;100.00;98165.00;5003873;28;20038;-73
2023/08/20 07:25:17;;;;;;;5.28;3.35;;;23.90;99.90;;;23.69;100.00;98159.53;4999337;28;20173;-73
2023/08/20 07:27:44;;;;;;;5.47;3.55;;;23.90;99.90;;;23.66;100.00;98166.94;5001270;28;20058;-73
2023/08/20 07:30:12;;;;;;;6.45;3.47;;;24.00;99.90;;;23.55;100.00;98168.69;5002678;28;20141;-73
2023/08/20 07:32:44;;;;;;;4.68;3.08;;;24.00;99.90;;;23.78;100.00;98161.41;5000873;28;20062;-73
2023/08/20 07:35:20;;;;;;;4.47;3.60;;;24.10;99.90;;;24.04;100.00;98165.38;5001003;28;20168;-73
2023/08/20 07:37:47;;;;;;;8.73;3.47;;;24.20;99.90;;;24.19;100.00;98161.38;5005780;28;20058;-72
2023/08/20 07:40:14;;;;;;;8.07;3.65;;;24.40;99.90;;;24.17;100.00;98160.69;5003933;28;20138;-73
2023/08/20 07:42:43;;;;;;;5.50;3.40;;;24.50;99.90;;;24.41;100.00;98166.44;5003189;28;20060;-73
2023/08/20 07:45:10;;;;;;;5.88;3.30;;;24.60;99.90;;;24.40;100.00;98161.25;5014652;28;20435;-73
2023/08/20 07:47:38;;;;;;;8.00;3.83;;;24.80;99.90;;;24.83;100.00;98160.03;4999430;28;20585;-72
2023/08/20 07:50:06;;;;;;;4.60;3.35;;;24.90;99.90;;;24.87;100.00;98157.97;4999901;28;20062;-73
2023/08/20 07:52:33;;;;;;;6.72;4.00;;;25.00;99.90;;;25.09;100.00;98165.63;5013425;28;20045;-74
2023/08/20 07:55:06;;;;;;;5.97;3.47;;;25.20;99.90;;;25.02;100.00;98165.34;4999405;28;20077;-73
2023/08/20 07:57:35;;;;;;;6.55;3.35;;;25.40;99.90;;;25.03;100.00;98163.53;5000493;28;20050;-73
2023/08/20 08:00:04;;;;;;;8.05;3.80;;;25.50;99.90;;;25.06;100.00;98157.91;4998008;28;20574;-73
2023/08/20 08:02:34;;;;;;;6.78;3.83;;;25.50;99.90;;;25.07;100.00;98151.63;5001514;28;20574;-73
2023/08/20 08:05:01;;;;;;;6.65;3.80;;;25.60;99.90;;;25.38;100.00;98154.09;5001372;28;20054;-73
2023/08/20 08:07:29;;;;;;;7.80;3.83;;;25.70;99.90;;;25.76;100.00;98152.28;4997410;28;20513;-73
2023/08/20 08:09:56;;;;;;;6.47;3.72;;;25.80;99.90;;;25.97;100.00;98155.53;4999419;28;20058;-73
2023/08/20 08:12:23;;;;;;;8.15;3.78;;;26.00;99.90;;;26.08;100.00;98157.16;5000038;28;20536;-73
2023/08/20 08:14:50;;;;;;;8.80;4.03;;;26.20;99.90;;;26.52;100.00;98156.44;5003817;28;20060;-74
2023/08/20 08:17:17;;;;;;;5.95;4.05;;;26.40;99.90;;;26.56;100.00;98158.69;4999524;28;20038;-73
2023/08/20 08:19:44;;;;;;;8.07;3.50;;;26.50;99.90;;;27.03;100.00;98161.09;5003065;28;20064;-73
2023/08/20 08:22:11;;;;;;;6.72;3.65;;;26.50;99.90;;;27.31;100.00;98161.78;5002929;28;20458;-73
2023/08/20 08:24:41;;;;;;;5.55;3.05;;;26.70;99.90;;;28.14;100.00;98165.69;4997770;28;20167;-73
2023/08/20 08:27:08;;;;;;;6.38;3.33;;;26.90;99.90;;;27.90;100.00;98166.47;5003498;28;20699;-73
2023/08/20 08:29:39;;;;;;;5.28;3.15;;;27.10;99.90;;;28.14;100.00;98181.69;5003084;28;20129;-71
2023/08/20 08:32:06;;;;;;;5.00;3.25;;;27.50;99.90;;;28.66;100.00;98184.19;4998597;28;20062;-73
2023/08/20 08:34:33;;;;;;;6.75;3.08;;;;;;;28.73;100.00;98190.53;5002886;28;20133;-71
2023/08/20 08:37:05;;;;;;;5.28;3.25;;;28.40;99.90;;;28.62;100.00;98198.03;5002817;28;20163;-74
2023/08/20 08:39:35;;;;;;;5.07;3.00;;;29.00;99.90;;;29.24;100.00;98197.56;5001576;28;20045;-73
2023/08/20 08:42:04;;;;;;;6.22;3.47;;;29.50;99.90;;;28.96;100.00;98200.56;4996934;28;20053;-74
2023/08/20 08:44:33;;;;;;;7.22;3.25;;;29.90;99.90;;;29.83;100.00;98208.84;4980842;28;20050;-74
2023/08/20 08:47:02;;;;;;;5.60;3.15;;;30.50;99.90;;;29.77;100.00;98202.34;4999726;28;20061;-74
2023/08/20 08:49:30;;;;;;;7.03;3.15;;;;;;;30.51;100.00;98207.38;5002678;28;20075;-73
2023/08/20 08:51:58;;;;;;;4.32;2.90;;;31.90;99.90;;;30.89;100.00;98214.69;4996476;28;20112;-73
2023/08/20 08:54:26;;;;;;;4.97;2.55;;;32.40;99.90;;;29.83;100.00;98208.00;5017388;28;20132;-73
2023/08/20 08:56:55;;;;;;;5.60;3.38;;;32.50;99.90;;;29.99;100.00;98208.81;4999854;28;20855;-73
2023/08/20 08:59:22;;;;;;;4.95;3.00;;;32.50;99.90;;;30.60;100.00;98206.31;4999078;28;20046;-73
2023/08/20 09:01:50;;;;;;;4.32;2.60;;;32.90;99.90;;;30.78;100.00;98206.03;4984759;28;20053;-73
2023/08/20 09:04:17;;;;;;;5.72;2.65;;;33.00;99.90;;;31.71;100.00;98211.28;5000325;28;20049;-71
2023/08/20 09:07:02;;;;;;;3.53;2.20;;;33.50;99.90;;;32.19;100.00;98214.44;4986501;28;20058;-73
2023/08/20 09:09:31;;;;;;;3.92;2.53;;;33.90;99.90;;;31.57;100.00;98216.47;5005049;28;20081;-74
2023/08/20 09:11:58;;;;;;;4.47;2.60;;;34.00;99.90;;;31.94;100.00;98208.50;4992745;28;20050;-73
2023/08/20 09:14:30;;;;;;;4.15;2.60;;;34.10;99.90;;;32.14;100.00;98204.25;4985826;28;20090;-73
2023/08/20 09:17:01;;;;;;;4.88;2.40;;;34.10;99.90;;;31.61;100.00;98214.22;4985186;28;20121;-74
2023/08/20 09:19:37;;;;;;;4.75;2.53;;;34.20;99.90;;;31.12;100.00;98212.00;5001361;28;20097;-73
2023/08/20 09:22:04;;;;;;;4.65;2.10;;;33.90;99.90;;;31.51;100.00;98213.69;4982831;28;20050;-73
2023/08/20 09:24:46;;;;;;;7.07;2.50;;;33.70;99.90;;;32.41;100.00;98202.72;4987197;28;20079;-73
2023/08/20 09:27:14;;;;;;;3.83;2.28;;;34.00;99.90;;;32.37;100.00;98211.34;4982713;28;20839;-73
2023/08/20 09:29:45;;;;;;;4.90;2.60;;;34.20;99.90;;;33.27;100.00;98204.59;4989379;28;20058;-72
2023/08/20 09:32:16;;;;;;;4.13;2.47;;;34.30;99.90;;;33.02;100.00;98212.22;4990100;28;20478;-73
2023/08/20 09:34:43;;;;;;;3.95;2.10;;;34.90;99.90;;;31.84;100.00;98206.94;4981775;28;20058;-74
2023/08/20 09:37:16;;;;;;;3.58;2.22;;;34.90;99.90;;;33.41;100.00;98200.97;4990818;28;20054;-73
2023/08/20 09:39:43;;;;;;;4.88;2.75;;;34.40;99.90;;;33.53;100.00;98201.28;4982973;28;20061;-73
2023/08/20 09:42:13;;;;;;;3.50;2.42;;;34.40;99.90;;;32.94;100.00;98199.75;4983461;28;20516;-72
2023/08/20 09:44:42;;;;;;;5.63;2.80;;;34.30;99.90;;;32.62;100.00;98204.63;4983231;28;20511;-73
2023/08/20 09:47:15;;;;;;;5.60;2.30;;;34.10;99.90;;;32.84;100.00;98201.91;4983346;28;20081;-73
2023/08/20 09:49:47;;;;;;;6.35;2.97;;;34.50;99.90;;;32.80;100.00;98196.13;4982748;28;20065;-70
2023/08/20 09:52:31;;;;;;;4.85;2.47;;;34.50;99.90;;;32.26;100.00;98196.53;4985033;28;20057;-73
2023/08/20 09:55:09;;;;;;;5.22;2.70;;;34.30;99.90;;;32.35;100.00;98191.88;4980130;28;20124;-72
2023/08/20 09:57:43;;;;;;;4.72;2.67;;;33.80;99.90;;;32.95;100.00;98184.44;4996396;28;20057;-73
2023/08/20 10:00:13;;;;;;;5.78;2.50;;;33.90;99.90;;;33.21;100.00;98187.38;4964963;28;20555;-73
2023/08/20 10:02:44;;;;;;;4.40;2.33;;;34.20;99.90;;;33.53;100.00;98182.44;5008930;28;20133;-73
2023/08/20 10:05:14;;;;;;;3.13;1.80;;;34.20;99.90;;;33.76;100.00;98176.81;5006963;28;20138;-73
2023/08/20 10:07:48;;;;;;;4.13;1.60;;;34.50;99.90;;;33.67;100.00;98186.06;5021195;28;20481;-74
2023/08/20 10:10:16;;;;;;;5.22;1.88;;;34.90;98.80;;;33.43;100.00;98188.16;4998166;28;20054;-73
2023/08/20 10:12:45;;;;;;;4.15;1.60;;;34.80;98.00;;;34.43;100.00;98185.16;4999877;28;20578;-73
2023/08/20 10:15:13;;;;;;;4.65;1.95;;;34.70;96.80;;;34.18;100.00;98183.00;5001959;28;20096;-72
2023/08/20 10:17:44;;;;;;;4.75;1.83;;;34.90;97.70;;;34.92;100.00;98181.31;5006316;28;20050;-73